createdAt,value
2024-03-10T00:01:04.873Z,280.73
2024-03-10T00:04:11.829Z,278.82
2024-03-10T00:07:19.877Z,278.20
2024-03-10T00:10:25.986Z,286.96
2024-03-10T00:13:31.299Z,290.32
2024-03-10T00:16:37.397Z,292.98
2024-03-10T00:19:43.348Z,293.98
2024-03-10T00:22:53.010Z,285.85
2024-03-10T00:25:58.786Z,289.46
2024-03-10T00:29:05.072Z,282.50
2024-03-10T00:32:12.661Z,283.52
2024-03-10T00:35:19.658Z,284.31
2024-03-10T00:38:29.166Z,293.75
2024-03-10T00:41:36.953Z,289.70
2024-03-10T00:44:42.966Z,295.96
2024-03-10T00:47:49.684Z,310.24
2024-03-10T00:50:55.456Z,336.57
2024-03-10T00:54:04.183Z,332.72
2024-03-10T00:57:10.059Z,325.18
2024-03-10T01:00:17.498Z,332.23
2024-03-10T01:03:24.086Z,327.44
2024-03-10T01:06:30.283Z,341.86
2024-03-10T01:09:38.596Z,344.64
2024-03-10T01:12:44.968Z,335.38
2024-03-10T01:15:50.319Z,330.79
2024-03-10T01:18:56.536Z,327.57
2024-03-10T01:22:02.606Z,326.34
2024-03-10T01:25:11.952Z,325.09
2024-03-10T01:28:17.367Z,323.14
2024-03-10T01:31:23.662Z,316.23
2024-03-10T01:34:29.003Z,312.35
2024-03-10T01:37:35.432Z,309.18
2024-03-10T01:40:43.330Z,321.55
2024-03-10T01:43:52.187Z,319.45
2024-03-10T01:46:58.104Z,323.18
2024-03-10T01:50:07.610Z,314.38
2024-03-10T01:53:13.922Z,313.32
2024-03-10T01:56:23.330Z,318.33
2024-03-10T01:59:30.085Z,306.25
2024-03-10T02:02:36.766Z,306.82
2024-03-10T02:05:42.447Z,307.39
2024-03-10T02:08:50.017Z,315.77
2024-03-10T02:11:58.805Z,307.38
2024-03-10T02:15:08.342Z,313.84
2024-03-10T02:18:14.336Z,327.33
2024-03-10T02:21:23.010Z,322.66
2024-03-10T02:24:38.272Z,314.16
2024-03-10T02:27:51.620Z,302.12
2024-03-10T02:31:00.040Z,305.43
2024-03-10T02:34:18.650Z,306.63
2024-03-10T02:37:37.988Z,304.94
2024-03-10T02:40:57.023Z,304.02
2024-03-10T02:44:17.539Z,311.13
2024-03-10T02:47:24.614Z,309.43
2024-03-10T02:50:30.124Z,303.14
2024-03-10T02:53:36.751Z,298.24
2024-03-10T02:56:42.156Z,288.36
2024-03-10T02:59:50.847Z,284.81
2024-03-10T03:02:58.581Z,294.39
2024-03-10T03:06:05.239Z,284.97
2024-03-10T03:09:10.662Z,281.34
2024-03-10T03:12:17.857Z,275.61
2024-03-10T03:15:26.015Z,277.96
2024-03-10T03:18:32.792Z,281.69
2024-03-10T03:21:38.240Z,268.79
2024-03-10T03:24:44.429Z,277.02
2024-03-10T03:27:52.425Z,265.69
2024-03-10T03:31:01.263Z,265.24
2024-03-10T03:34:06.716Z,260.36
2024-03-10T03:37:14.276Z,264.99
2024-03-10T03:40:20.762Z,263.85
2024-03-10T03:43:27.268Z,264.29
2024-03-10T03:46:35.411Z,264.65
2024-03-10T03:49:42.096Z,259.32
2024-03-10T03:52:47.480Z,251.64
2024-03-10T03:55:53.875Z,254.84
2024-03-10T03:58:59.240Z,250.06
2024-03-10T04:02:08.568Z,253.80
2024-03-10T04:05:13.980Z,245.72
2024-03-10T04:08:21.292Z,252.69
2024-03-10T04:11:27.017Z,246.20
2024-03-10T04:14:33.516Z,252.43
2024-03-10T04:17:41.601Z,244.94
2024-03-10T04:20:49.886Z,250.36
2024-03-10T04:23:55.296Z,246.78
2024-03-10T04:27:01.678Z,240.24
2024-03-10T04:30:08.621Z,244.22
2024-03-10T04:33:17.318Z,247.80
2024-03-10T04:36:22.704Z,246.61
2024-03-10T04:39:29.019Z,247.94
2024-03-10T04:42:35.077Z,252.50
2024-03-10T04:45:41.405Z,242.65
2024-03-10T04:48:51.974Z,235.99
2024-03-10T04:51:58.250Z,238.31
2024-03-10T04:55:03.602Z,238.43
2024-03-10T04:58:09.838Z,241.41
2024-03-10T05:01:15.371Z,232.01
2024-03-10T05:04:24.763Z,232.72
2024-03-10T05:07:30.195Z,239.46
2024-03-10T05:10:36.364Z,241.92
2024-03-10T05:13:41.825Z,232.37
2024-03-10T05:16:48.167Z,245.03
2024-03-10T05:19:56.126Z,235.29
2024-03-10T05:23:02.989Z,226.64
2024-03-10T05:26:08.875Z,224.91
2024-03-10T05:29:15.169Z,227.39
2024-03-10T05:32:20.545Z,230.63
2024-03-10T05:35:29.421Z,227.98
2024-03-10T05:38:35.001Z,227.08
2024-03-10T05:41:42.221Z,223.62
2024-03-10T05:44:47.760Z,224.91
2024-03-10T05:47:54.562Z,230.73
2024-03-10T05:51:02.520Z,234.87
2024-03-10T05:54:09.357Z,234.07
2024-03-10T05:57:15.242Z,228.87
2024-03-10T06:00:22.356Z,220.73
2024-03-10T06:03:27.878Z,221.37
2024-03-10T06:06:38.328Z,220.51
2024-03-10T06:09:43.671Z,210.31
2024-03-10T06:12:49.834Z,202.57
2024-03-10T06:15:56.241Z,194.86
2024-03-10T06:19:15.172Z,200.16
2024-03-10T06:22:35.750Z,200.99
2024-03-10T06:25:41.892Z,200.33
2024-03-10T06:28:47.327Z,203.78
2024-03-10T06:31:55.137Z,207.05
2024-03-10T06:35:00.558Z,207.37
2024-03-10T06:38:09.325Z,229.58
2024-03-10T06:41:15.341Z,232.65
2024-03-10T06:44:23.473Z,232.26
2024-03-10T06:47:28.964Z,223.40
2024-03-10T06:50:35.262Z,217.52
2024-03-10T06:53:43.871Z,216.03
2024-03-10T06:56:50.057Z,232.10
2024-03-10T06:59:55.669Z,218.96
2024-03-10T07:03:02.028Z,207.91
2024-03-10T07:06:08.922Z,217.08
2024-03-10T07:09:17.754Z,195.47
2024-03-10T07:12:23.189Z,193.87
2024-03-10T07:15:29.580Z,196.05
2024-03-10T07:18:36.533Z,176.68
2024-03-10T07:21:42.708Z,162.33
2024-03-10T07:24:50.754Z,164.06
2024-03-10T07:27:56.915Z,154.03
2024-03-10T07:31:02.442Z,150.09
2024-03-10T07:34:08.723Z,137.75
2024-03-10T07:37:14.133Z,137.38
2024-03-10T07:40:23.189Z,134.84
2024-03-10T07:43:29.794Z,128.92
2024-03-10T07:46:36.094Z,131.91
2024-03-10T07:49:42.106Z,139.78
2024-03-10T07:52:50.463Z,124.66
2024-03-10T07:55:59.642Z,123.12
2024-03-10T07:59:06.179Z,116.25
2024-03-10T08:02:11.502Z,122.18
2024-03-10T08:05:17.918Z,105.83
2024-03-10T08:08:23.378Z,105.14
2024-03-10T08:11:32.304Z,109.76
2024-03-10T08:14:39.585Z,108.01
2024-03-10T08:17:45.876Z,102.44
2024-03-10T08:20:51.700Z,98.07
2024-03-10T08:23:57.868Z,99.67
2024-03-10T08:27:05.772Z,98.44
2024-03-10T08:30:13.205Z,90.58
2024-03-10T08:33:18.726Z,80.46
2024-03-10T08:36:24.819Z,83.54
2024-03-10T08:39:31.468Z,85.26
2024-03-10T08:42:40.864Z,82.05
2024-03-10T08:45:46.407Z,82.29
2024-03-10T08:48:53.214Z,87.33
2024-03-10T08:51:58.859Z,91.66
2024-03-10T08:55:06.485Z,88.31
2024-03-10T08:58:14.716Z,89.08
2024-03-10T09:01:21.951Z,92.17
2024-03-10T09:04:27.490Z,94.90
2024-03-10T09:07:33.701Z,97.89
2024-03-10T09:10:49.634Z,96.42
2024-03-10T09:14:02.793Z,98.96
2024-03-10T09:17:08.686Z,128.18
2024-03-10T09:20:16.048Z,111.82
2024-03-10T09:23:24.772Z,111.00
2024-03-10T09:26:32.685Z,116.65
2024-03-10T09:29:43.637Z,115.10
2024-03-10T09:32:52.189Z,113.08
2024-03-10T09:35:59.919Z,111.23
2024-03-10T09:39:14.319Z,122.23
2024-03-10T09:42:20.626Z,115.86
2024-03-10T09:45:38.800Z,111.25
2024-03-10T09:48:46.638Z,104.68
2024-03-10T09:51:54.552Z,104.66
2024-03-10T09:54:59.982Z,105.17
2024-03-10T09:58:22.790Z,98.63
2024-03-10T10:01:39.907Z,104.27
2024-03-10T10:05:02.209Z,91.66
2024-03-10T10:08:12.161Z,90.79
2024-03-10T10:11:20.057Z,101.54
2024-03-10T10:14:31.757Z,96.07
2024-03-10T10:17:40.788Z,82.67
2024-03-10T10:20:52.917Z,77.79
2024-03-10T10:24:01.847Z,73.26
2024-03-10T10:27:10.925Z,74.67
2024-03-10T10:30:24.153Z,77.92
2024-03-10T10:33:33.761Z,82.89
2024-03-10T10:36:42.918Z,99.42
2024-03-10T10:39:48.512Z,104.59
2024-03-10T10:43:04.518Z,94.42
2024-03-10T10:46:13.525Z,95.97
2024-03-10T10:49:23.547Z,90.14
2024-03-10T10:52:29.311Z,81.59
2024-03-10T10:55:41.624Z,75.73
2024-03-10T10:58:54.820Z,77.42
2024-03-10T11:02:21.340Z,78.55
2024-03-10T11:05:29.523Z,92.41
2024-03-10T11:08:38.432Z,89.73
2024-03-10T11:11:53.771Z,88.45
2024-03-10T11:15:00.344Z,95.60
2024-03-10T11:18:30.900Z,91.42
2024-03-10T11:21:39.921Z,102.65
2024-03-10T11:24:47.066Z,79.00
2024-03-10T11:27:53.748Z,69.97
2024-03-10T11:31:02.655Z,70.21
2024-03-10T11:34:12.256Z,70.80
2024-03-10T11:37:23.294Z,71.37
2024-03-10T11:40:31.792Z,78.71
2024-03-10T11:43:37.701Z,76.84
2024-03-10T11:46:44.759Z,71.57
2024-03-10T11:49:50.234Z,69.01
2024-03-10T11:52:59.392Z,74.33
2024-03-10T11:56:05.615Z,74.53
2024-03-10T11:59:12.992Z,64.38
2024-03-10T12:02:18.573Z,67.75
2024-03-10T12:05:26.052Z,92.74
2024-03-10T12:08:38.671Z,80.01
2024-03-10T12:11:47.748Z,53.38
2024-03-10T12:14:53.154Z,54.35
2024-03-10T12:18:02.442Z,53.04
2024-03-10T12:21:11.672Z,56.41
2024-03-10T12:24:21.696Z,77.84
2024-03-10T12:27:27.104Z,70.04
2024-03-10T12:30:33.329Z,59.55
2024-03-10T12:33:40.866Z,53.92
2024-03-10T12:36:47.224Z,51.02
2024-03-10T12:40:06.939Z,53.73
2024-03-10T12:43:13.132Z,57.32
2024-03-10T12:46:19.559Z,58.96
2024-03-10T12:49:25.867Z,56.72
2024-03-10T12:52:31.327Z,57.92
2024-03-10T12:55:43.287Z,59.71
2024-03-10T12:58:48.741Z,60.22
2024-03-10T13:01:55.561Z,63.17
2024-03-10T13:05:00.990Z,64.76
2024-03-10T13:08:11.000Z,63.26
2024-03-10T13:11:20.322Z,61.28
2024-03-10T13:14:26.764Z,72.36
2024-03-10T13:17:32.261Z,80.33
2024-03-10T13:20:45.352Z,66.40
2024-03-10T13:23:51.069Z,72.05
2024-03-10T13:27:00.646Z,68.69
2024-03-10T13:30:06.995Z,64.08
2024-03-10T13:33:16.402Z,63.15
2024-03-10T13:36:22.188Z,67.84
2024-03-10T13:39:29.300Z,65.61
2024-03-10T13:42:38.987Z,65.20
2024-03-10T13:45:45.896Z,65.50
2024-03-10T13:48:51.281Z,67.76
2024-03-10T13:51:58.987Z,62.12
2024-03-10T13:55:04.647Z,65.11
2024-03-10T13:58:14.601Z,68.87
2024-03-10T14:01:20.013Z,67.62
2024-03-10T14:04:27.900Z,64.09
2024-03-10T14:07:33.545Z,64.12
2024-03-10T14:10:42.650Z,63.28
2024-03-10T14:13:50.866Z,57.87
2024-03-10T14:16:58.786Z,61.00
2024-03-10T14:20:06.350Z,59.41
2024-03-10T14:23:12.973Z,60.57
2024-03-10T14:26:20.089Z,64.16
2024-03-10T14:29:29.028Z,64.95
2024-03-10T14:32:34.549Z,63.66
2024-03-10T14:35:41.152Z,70.28
2024-03-10T14:38:46.793Z,66.11
2024-03-10T14:41:53.062Z,67.89
2024-03-10T14:45:02.800Z,68.17
2024-03-10T14:48:10.051Z,65.29
2024-03-10T14:51:15.482Z,63.30
2024-03-10T14:54:21.574Z,65.22
2024-03-10T14:57:28.739Z,59.04
2024-03-10T15:00:41.703Z,60.45
2024-03-10T15:03:49.880Z,58.15
2024-03-10T15:06:57.957Z,58.78
2024-03-10T15:10:09.896Z,61.69
2024-03-10T15:13:19.461Z,72.03
2024-03-10T15:16:27.683Z,79.73
2024-03-10T15:19:33.865Z,73.39
2024-03-10T15:22:41.815Z,68.24
2024-03-10T15:25:51.101Z,65.96
2024-03-10T15:28:59.380Z,65.74
2024-03-10T15:32:09.089Z,63.24
2024-03-10T15:35:15.141Z,61.53
2024-03-10T15:38:22.740Z,52.83
2024-03-10T15:41:28.429Z,49.37
2024-03-10T15:44:39.264Z,51.60
2024-03-10T15:47:50.129Z,45.74
2024-03-10T15:50:56.783Z,48.40
2024-03-10T15:54:02.070Z,43.01
2024-03-10T15:57:09.047Z,40.99
2024-03-10T16:00:17.914Z,42.76
2024-03-10T16:03:43.641Z,43.91
2024-03-10T16:06:48.994Z,41.62
2024-03-10T16:09:57.486Z,38.83
2024-03-10T16:13:07.346Z,39.77
2024-03-10T16:16:17.298Z,38.77
2024-03-10T16:19:26.062Z,44.74
2024-03-10T16:22:32.214Z,43.56
2024-03-10T16:25:37.900Z,40.91
2024-03-10T16:28:44.685Z,39.76
2024-03-10T16:31:50.626Z,44.04
2024-03-10T16:34:59.560Z,43.72
2024-03-10T16:38:08.016Z,46.85
2024-03-10T16:41:15.973Z,55.98
2024-03-10T16:44:21.569Z,64.08
2024-03-10T16:47:28.443Z,82.87
2024-03-10T16:50:37.324Z,139.20
2024-03-10T16:53:43.798Z,112.69
2024-03-10T16:56:49.251Z,113.80
2024-03-10T16:59:55.618Z,161.16
2024-03-10T17:03:02.669Z,101.61
2024-03-10T17:06:18.051Z,96.41
2024-03-10T17:09:24.220Z,91.70
2024-03-10T17:12:31.238Z,119.18
2024-03-10T17:15:39.175Z,100.47
2024-03-10T17:18:47.479Z,107.18
2024-03-10T17:21:57.557Z,106.88
2024-03-10T17:25:03.773Z,108.28
2024-03-10T17:28:10.254Z,114.90
2024-03-10T17:31:16.526Z,117.46
2024-03-10T17:34:24.993Z,116.10
2024-03-10T17:37:35.145Z,126.34
2024-03-10T17:40:41.732Z,148.63
2024-03-10T17:43:48.449Z,179.80
2024-03-10T17:46:53.983Z,180.17
2024-03-10T17:50:00.148Z,175.25
2024-03-10T17:53:09.078Z,122.16
2024-03-10T17:56:19.151Z,125.43
2024-03-10T17:59:24.855Z,126.11
2024-03-10T18:02:31.932Z,126.98
2024-03-10T18:05:38.143Z,118.23
2024-03-10T18:08:50.630Z,113.72
2024-03-10T18:11:57.447Z,113.91
2024-03-10T18:15:03.699Z,136.34
2024-03-10T18:18:12.873Z,132.04
2024-03-10T18:21:19.973Z,106.36
2024-03-10T18:24:41.416Z,106.39
2024-03-10T18:27:52.316Z,110.93
2024-03-10T18:30:58.661Z,132.27
2024-03-10T18:34:16.091Z,111.70
2024-03-10T18:37:21.544Z,106.23
2024-03-10T18:40:37.524Z,114.52
2024-03-10T18:43:43.149Z,115.45
2024-03-10T18:46:55.393Z,115.20
2024-03-10T18:50:00.930Z,126.19
2024-03-10T18:53:07.785Z,132.09
2024-03-10T18:56:17.144Z,130.26
2024-03-10T18:59:37.488Z,124.35
2024-03-10T19:02:44.018Z,121.94
2024-03-10T19:05:52.350Z,122.17
2024-03-10T19:08:58.664Z,127.76
2024-03-10T19:12:07.937Z,123.45
2024-03-10T19:15:15.806Z,131.12
2024-03-10T19:28:08.267Z,259.95
2024-03-10T19:31:17.393Z,164.52
2024-03-10T19:34:33.173Z,145.86
2024-03-10T19:37:40.151Z,139.03
2024-03-10T19:40:46.462Z,136.82
2024-03-10T19:43:56.952Z,146.20
2024-03-10T19:47:02.349Z,143.36
2024-03-10T19:50:14.344Z,145.40
2024-03-10T19:53:27.940Z,147.86
2024-03-10T19:56:38.017Z,151.67
2024-03-10T19:59:50.959Z,146.20
2024-03-10T20:02:59.159Z,159.56
2024-03-10T20:06:06.331Z,156.67
2024-03-10T20:09:18.046Z,148.44
2024-03-10T20:12:27.870Z,155.18
2024-03-10T20:15:37.713Z,146.42
2024-03-10T20:18:43.269Z,148.73
2024-03-10T20:21:55.459Z,145.29
2024-03-10T20:25:01.672Z,148.66
2024-03-10T20:28:29.851Z,149.28
2024-03-10T20:31:37.989Z,173.74
2024-03-10T20:34:52.745Z,167.54
2024-03-10T20:37:58.269Z,172.08
2024-03-10T20:41:17.165Z,161.56
2024-03-10T20:44:24.739Z,163.25
2024-03-10T20:47:37.534Z,160.46
2024-03-10T20:54:30.190Z,164.17
2024-03-10T20:57:42.856Z,201.91
2024-03-10T21:00:51.050Z,180.27
2024-03-10T21:04:05.204Z,165.49
2024-03-10T21:07:14.473Z,154.18
2024-03-10T21:10:23.461Z,150.96
2024-03-10T21:13:34.061Z,155.02
2024-03-10T21:16:40.555Z,151.02
2024-03-10T21:19:51.916Z,153.63
2024-03-10T21:22:57.435Z,161.23
2024-03-10T21:26:05.628Z,155.59
2024-03-10T21:29:12.077Z,151.04
2024-03-10T21:32:18.362Z,144.35
2024-03-10T21:35:26.738Z,147.84
2024-03-10T21:38:33.647Z,149.04
2024-03-10T21:41:39.162Z,147.74
2024-03-10T21:44:46.343Z,155.43
2024-03-10T21:47:51.931Z,147.85
2024-03-10T21:51:00.791Z,140.63
2024-03-10T21:54:08.007Z,140.59
2024-03-10T21:57:14.207Z,150.69
2024-03-10T22:00:21.627Z,149.63
2024-03-10T22:03:27.905Z,152.20
2024-03-10T22:06:37.026Z,152.05
2024-03-10T22:09:43.184Z,149.97
2024-03-10T22:12:49.589Z,151.65
2024-03-10T22:15:55.980Z,153.59
2024-03-10T22:19:01.420Z,148.02
2024-03-10T22:22:10.203Z,157.40
2024-03-10T22:25:17.749Z,158.90
2024-03-10T22:28:23.948Z,158.15
2024-03-10T22:31:31.690Z,153.79
2024-03-10T22:34:38.664Z,147.55
2024-03-10T22:37:49.619Z,149.47
2024-03-10T22:40:55.992Z,148.22
2024-03-10T22:44:01.380Z,149.44
2024-03-10T22:47:07.898Z,144.83
2024-03-10T22:50:15.856Z,144.29
2024-03-10T22:53:24.777Z,142.95
2024-03-10T22:56:30.279Z,144.43
2024-03-10T22:59:36.518Z,147.03
2024-03-10T23:02:42.225Z,147.50
2024-03-10T23:05:49.600Z,145.67
2024-03-10T23:08:58.725Z,142.38
2024-03-10T23:12:04.998Z,144.44
2024-03-10T23:15:13.042Z,143.60
2024-03-10T23:18:26.145Z,142.97
2024-03-10T23:21:34.346Z,146.21
2024-03-10T23:24:44.134Z,140.56
2024-03-10T23:27:49.705Z,137.46
2024-03-10T23:30:56.525Z,140.66
2024-03-10T23:34:01.830Z,139.55
2024-03-10T23:37:09.295Z,139.95
2024-03-10T23:40:17.621Z,135.97
2024-03-10T23:43:23.731Z,136.32
2024-03-10T23:46:29.122Z,136.99
2024-03-10T23:49:37.063Z,140.85
2024-03-10T23:52:45.703Z,155.82
2024-03-10T23:56:05.234Z,150.15
2024-03-10T23:59:11.851Z,156.44
